createdAt,value
2022-08-02T00:03:24.878Z,99.90
2022-08-02T00:08:26.884Z,99.90
2022-08-02T00:13:28.721Z,99.90
2022-08-02T00:18:30.869Z,99.90
2022-08-02T00:23:32.768Z,99.90
2022-08-02T00:28:54.748Z,99.90
2022-08-02T00:34:27.516Z,99.90
2022-08-02T00:39:34.939Z,99.90
2022-08-02T00:44:37.653Z,99.90
2022-08-02T00:49:39.544Z,99.90
2022-08-02T00:54:41.500Z,99.90
2022-08-02T00:59:43.553Z,99.90
2022-08-02T01:04:45.550Z,99.90
2022-08-02T01:09:47.410Z,99.90
2022-08-02T01:14:53.858Z,99.90
2022-08-02T01:20:23.157Z,99.90
2022-08-02T01:25:52.216Z,99.90
2022-08-02T01:30:58.928Z,99.90
2022-08-02T01:36:01.938Z,99.90
2022-08-02T01:41:04.225Z,99.90
2022-08-02T01:46:07.018Z,99.90
2022-08-02T01:51:12.511Z,99.90
2022-08-02T01:56:15.985Z,99.90
2022-08-02T02:01:19.279Z,99.90
2022-08-02T02:06:23.218Z,99.90
2022-08-02T02:12:06.507Z,99.90
2022-08-02T02:16:48.283Z,99.90
2022-08-02T02:21:50.258Z,99.90
2022-08-02T02:26:52.913Z,99.90
2022-08-02T02:31:55.658Z,99.90
2022-08-02T02:37:00.519Z,99.90
2022-08-02T02:42:04.250Z,99.90
2022-08-02T02:47:06.834Z,99.90
2022-08-02T02:52:09.414Z,99.90
2022-08-02T02:57:11.886Z,99.90
2022-08-02T03:02:14.525Z,99.90
2022-08-02T03:07:16.811Z,99.90
2022-08-02T03:12:20.229Z,99.90
2022-08-02T03:17:22.104Z,99.90
2022-08-02T03:22:23.926Z,99.90
2022-08-02T03:27:25.758Z,99.90
2022-08-02T03:32:27.688Z,99.90
2022-08-02T03:37:30.250Z,99.90
2022-08-02T03:42:32.086Z,99.90
2022-08-02T03:47:34.029Z,99.90
2022-08-02T03:52:36.625Z,99.90
2022-08-02T03:57:40.058Z,99.90
2022-08-02T04:02:42.123Z,99.90
2022-08-02T04:08:34.328Z,99.90
2022-08-02T04:13:06.051Z,99.90
2022-08-02T04:18:07.876Z,99.90
2022-08-02T04:23:11.961Z,99.90
2022-08-02T04:28:18.205Z,99.90
2022-08-02T04:33:20.645Z,99.90
2022-08-02T04:38:22.462Z,99.90
2022-08-02T04:43:24.354Z,99.90
2022-08-02T04:48:26.185Z,99.90
2022-08-02T04:53:28.063Z,99.90
2022-08-02T04:58:45.078Z,99.90
2022-08-02T05:03:46.960Z,99.90
2022-08-02T05:08:52.661Z,99.90
2022-08-02T05:13:57.650Z,99.90
2022-08-02T05:19:01.249Z,99.90
2022-08-02T05:24:04.570Z,99.90
2022-08-02T05:29:06.493Z,99.90
2022-08-02T05:34:11.875Z,99.90
2022-08-02T05:39:19.175Z,99.90
2022-08-02T05:44:21.647Z,99.90
2022-08-02T05:49:23.532Z,99.90
2022-08-02T05:54:49.553Z,99.90
2022-08-02T05:59:51.333Z,99.90
2022-08-02T06:05:13.799Z,98.20
2022-08-02T06:10:17.521Z,94.90
2022-08-02T06:15:20.088Z,94.30
2022-08-02T06:20:23.019Z,90.80
2022-08-02T06:25:49.802Z,87.00
2022-08-02T06:30:47.893Z,88.00
2022-08-02T06:36:01.014Z,87.80
2022-08-02T06:41:06.131Z,82.80
2022-08-02T06:46:34.042Z,85.70
2022-08-02T06:51:31.105Z,87.70
2022-08-02T06:56:32.939Z,88.80
2022-08-02T07:01:38.768Z,89.20
2022-08-02T07:06:41.409Z,85.00
2022-08-02T07:11:43.238Z,79.80
2022-08-02T07:16:45.099Z,80.40
2022-08-02T07:21:57.537Z,76.30
2022-08-02T07:27:11.157Z,73.90
2022-08-02T07:32:18.090Z,72.20
2022-08-02T07:37:35.066Z,73.50
2022-08-02T07:42:41.857Z,72.70
2022-08-02T07:47:44.835Z,73.90
2022-08-02T07:52:47.008Z,72.20
2022-08-02T07:57:48.837Z,70.90
2022-08-02T08:02:50.675Z,70.50
2022-08-02T08:07:52.693Z,68.30
2022-08-02T08:12:55.263Z,67.50
2022-08-02T08:17:57.086Z,67.70
2022-08-02T08:22:59.010Z,67.30
2022-08-02T08:28:00.906Z,67.80
2022-08-02T08:33:03.009Z,67.70
2022-08-02T08:38:07.834Z,67.20
2022-08-02T08:43:13.534Z,68.80
2022-08-02T08:48:31.340Z,70.10
2022-08-02T08:53:39.814Z,72.40
2022-08-02T08:58:45.066Z,74.30
2022-08-02T09:03:47.035Z,75.40
2022-08-02T09:08:49.220Z,77.60
2022-08-02T09:13:58.930Z,79.70
2022-08-02T09:19:17.717Z,82.80
2022-08-02T09:24:22.972Z,83.10
2022-08-02T09:29:24.867Z,81.80
2022-08-02T09:34:43.461Z,73.10
2022-08-02T09:39:46.617Z,71.90
2022-08-02T09:44:56.944Z,67.80
2022-08-02T09:49:58.830Z,62.10
2022-08-02T09:55:07.006Z,65.50
2022-08-02T10:00:14.009Z,67.50
2022-08-02T10:05:21.496Z,70.50
2022-08-02T10:10:24.643Z,71.10
2022-08-02T10:15:27.575Z,69.20
2022-08-02T10:20:30.514Z,68.30
2022-08-02T10:25:32.549Z,64.70
2022-08-02T10:30:38.497Z,62.10
2022-08-02T10:35:41.060Z,62.20
2022-08-02T10:40:44.449Z,62.60
2022-08-02T10:45:50.718Z,62.00
2022-08-02T10:50:53.027Z,60.00
2022-08-02T10:55:56.474Z,60.30
2022-08-02T11:00:59.867Z,56.40
2022-08-02T11:06:25.674Z,57.80
2022-08-02T11:11:54.274Z,57.40
2022-08-02T11:17:10.031Z,57.60
2022-08-02T11:22:13.683Z,58.00
2022-08-02T11:27:21.894Z,58.90
2022-08-02T11:32:30.528Z,59.10
2022-08-02T11:37:38.511Z,59.20
2022-08-02T11:42:44.320Z,57.50
2022-08-02T11:47:48.047Z,57.10
2022-08-02T11:52:49.926Z,54.60
2022-08-02T11:58:04.718Z,54.90
2022-08-02T12:03:08.089Z,56.60
2022-08-02T12:08:09.982Z,55.60
2022-08-02T12:13:12.231Z,53.60
2022-08-02T12:18:34.108Z,53.20
2022-08-02T12:24:00.253Z,53.30
2022-08-02T12:29:03.038Z,54.90
2022-08-02T12:34:15.029Z,52.20
2022-08-02T12:39:16.872Z,53.80
2022-08-02T12:44:19.736Z,54.50
2022-08-02T12:49:21.953Z,54.10
2022-08-02T12:54:31.596Z,54.60
2022-08-02T12:59:39.670Z,52.60
2022-08-02T13:04:42.186Z,52.90
2022-08-02T13:10:02.720Z,53.00
2022-08-02T13:15:12.546Z,50.20
2022-08-02T13:20:31.776Z,51.90
2022-08-02T13:25:33.792Z,50.80
2022-08-02T13:30:35.741Z,49.80
2022-08-02T13:35:37.675Z,51.30
2022-08-02T13:41:04.826Z,52.00
2022-08-02T13:46:07.173Z,52.60
2022-08-02T13:51:12.029Z,51.40
2022-08-02T13:56:16.862Z,50.60
2022-08-02T14:01:18.753Z,50.20
2022-08-02T14:06:23.662Z,50.20
2022-08-02T14:11:25.560Z,49.80
2022-08-02T14:16:33.013Z,51.30
2022-08-02T14:21:47.029Z,50.00
2022-08-02T14:26:50.257Z,51.50
2022-08-02T14:31:52.079Z,51.90
2022-08-02T14:36:55.581Z,51.70
2022-08-02T14:41:59.721Z,50.40
2022-08-02T14:47:02.593Z,51.40
2022-08-02T14:52:04.841Z,51.90
2022-08-02T14:57:06.896Z,54.10
2022-08-02T15:02:09.575Z,52.90
2022-08-02T15:07:14.171Z,52.40
2022-08-02T15:12:16.969Z,52.70
2022-08-02T15:17:19.082Z,52.70
2022-08-02T15:22:20.942Z,52.30
2022-08-02T15:27:22.794Z,51.00
2022-08-02T15:32:24.660Z,51.80
2022-08-02T15:37:30.959Z,51.10
2022-08-02T15:42:33.141Z,51.00
2022-08-02T15:47:36.439Z,51.20
2022-08-02T15:52:39.367Z,51.90
2022-08-02T15:57:42.302Z,51.70
2022-08-02T16:02:45.145Z,52.90
2022-08-02T16:07:49.553Z,53.30
2022-08-02T16:12:51.494Z,53.40
2022-08-02T16:17:54.676Z,53.70
2022-08-02T16:22:56.709Z,55.10
2022-08-02T16:28:07.052Z,56.50
2022-08-02T16:33:09.749Z,57.00
2022-08-02T16:38:11.598Z,57.10
2022-08-02T16:43:14.481Z,60.00
2022-08-02T16:48:16.519Z,59.00
2022-08-02T16:53:36.357Z,60.90
2022-08-02T16:58:40.498Z,62.90
2022-08-02T17:03:56.960Z,63.10
2022-08-02T17:08:59.797Z,64.20
2022-08-02T17:14:01.640Z,64.60
2022-08-02T17:19:04.181Z,63.70
2022-08-02T17:24:08.388Z,63.70
2022-08-02T17:29:16.205Z,64.00
2022-08-02T17:34:19.692Z,64.70
2022-08-02T17:39:33.487Z,65.80
2022-08-02T17:44:38.425Z,67.00
2022-08-02T17:49:48.050Z,65.40
2022-08-02T17:54:51.162Z,67.50
2022-08-02T18:00:04.343Z,68.10
2022-08-02T18:05:11.849Z,69.40
2022-08-02T18:10:15.475Z,69.40
2022-08-02T18:15:20.022Z,70.00
2022-08-02T18:20:22.801Z,67.80
2022-08-02T18:25:37.317Z,69.40
2022-08-02T18:30:46.622Z,72.50
2022-08-02T18:35:52.560Z,74.10
2022-08-02T18:41:00.919Z,75.10
2022-08-02T18:46:15.493Z,77.10
2022-08-02T18:51:18.712Z,78.90
2022-08-02T18:56:24.660Z,78.70
2022-08-02T19:01:33.664Z,78.60
2022-08-02T19:06:37.460Z,81.50
2022-08-02T19:11:40.953Z,78.20
2022-08-02T19:16:43.266Z,79.90
2022-08-02T19:22:16.217Z,84.30
2022-08-02T19:27:14.195Z,83.30
2022-08-02T19:32:42.754Z,82.90
2022-08-02T19:37:42.384Z,85.10
2022-08-02T19:44:20.738Z,87.30
2022-08-02T19:48:12.039Z,89.60
2022-08-02T19:53:17.137Z,90.90
2022-08-02T19:58:19.026Z,91.80
2022-08-02T20:08:53.355Z,91.50
2022-08-02T20:13:59.111Z,93.20
2022-08-02T20:19:04.608Z,96.70
2022-08-02T20:24:07.570Z,93.90
2022-08-02T20:29:09.831Z,97.20
2022-08-02T20:34:11.662Z,96.60
2022-08-02T20:39:14.990Z,99.40
2022-08-02T20:44:30.124Z,98.80
2022-08-02T20:49:41.617Z,97.40
2022-08-02T20:54:43.744Z,99.20
2022-08-02T20:59:51.956Z,99.90
2022-08-02T21:04:54.054Z,99.60
2022-08-02T21:09:56.565Z,99.60
2022-08-02T21:14:59.647Z,99.90
2022-08-02T21:20:01.845Z,99.90
2022-08-02T21:25:04.918Z,99.90
2022-08-02T21:30:11.525Z,99.90
2022-08-02T21:35:13.506Z,99.90
2022-08-02T21:40:15.819Z,99.90
2022-08-02T21:45:19.979Z,99.90
2022-08-02T21:50:22.178Z,99.90
2022-08-02T21:56:01.053Z,99.90
2022-08-02T22:00:45.939Z,99.90
2022-08-02T22:05:47.764Z,99.90
2022-08-02T22:11:03.222Z,99.90
2022-08-02T22:16:05.685Z,99.90
2022-08-02T22:21:14.196Z,99.90
2022-08-02T22:26:19.020Z,99.90
2022-08-02T22:31:40.583Z,99.90
2022-08-02T22:36:43.994Z,99.90
2022-08-02T22:42:05.729Z,99.90
2022-08-02T22:47:14.473Z,99.90
2022-08-02T22:52:17.196Z,99.90
2022-08-02T22:57:29.989Z,99.90
2022-08-02T22:59:05.371Z,91.80
2022-08-02T23:02:33.072Z,99.90
2022-08-02T23:07:36.249Z,99.90
2022-08-02T23:12:40.912Z,99.90
2022-08-02T23:18:01.426Z,99.90
2022-08-02T23:23:03.469Z,99.90
2022-08-02T23:28:13.992Z,99.90
2022-08-02T23:33:15.826Z,99.90
2022-08-02T23:38:17.662Z,99.90
2022-08-02T23:43:19.483Z,99.90
2022-08-02T23:48:21.300Z,99.90
2022-08-02T23:53:23.140Z,99.90
2022-08-02T23:58:25.060Z,99.90
